createdAt,value
2023-04-05T00:01:58.716Z,99382.23
2023-04-05T00:04:28.943Z,99383.89
2023-04-05T00:06:57.587Z,99380.63
2023-04-05T00:09:26.385Z,99377.00
2023-04-05T00:11:54.928Z,99377.46
2023-04-05T00:14:23.177Z,99383.08
2023-04-05T00:16:51.950Z,99392.63
2023-04-05T00:19:23.289Z,99395.05
2023-04-05T00:21:54.625Z,99403.74
2023-04-05T00:24:23.185Z,99406.59
2023-04-05T00:26:51.473Z,99399.13
2023-04-05T00:29:19.934Z,99390.42
2023-04-05T00:31:48.128Z,99381.70
2023-04-05T00:34:18.598Z,99371.17
2023-04-05T00:36:47.291Z,99360.23
2023-04-05T00:39:15.583Z,99346.55
2023-04-05T00:41:46.402Z,99343.95
2023-04-05T00:44:15.930Z,99339.34
2023-04-05T00:46:48.654Z,99332.96
2023-04-05T00:49:16.912Z,99331.41
2023-04-05T00:51:45.181Z,99327.46
2023-04-05T00:54:14.164Z,99328.78
2023-04-05T00:56:45.776Z,99327.59
2023-04-05T00:59:16.010Z,99329.59
2023-04-05T01:01:55.266Z,99332.81
2023-04-05T01:04:30.843Z,99330.63
2023-04-05T01:07:25.532Z,99335.71
2023-04-05T01:09:56.784Z,99336.92
2023-04-05T01:12:33.199Z,99337.83
2023-04-05T01:15:01.542Z,99332.95
2023-04-05T01:17:37.077Z,99329.23
2023-04-05T01:20:10.769Z,99326.83
2023-04-05T01:23:06.687Z,99329.91
2023-04-05T01:25:45.144Z,99328.34
2023-04-05T01:28:35.850Z,99331.83
2023-04-05T01:31:15.729Z,99332.76
2023-04-05T01:33:59.329Z,99326.29
2023-04-05T01:36:44.023Z,99324.64
2023-04-05T01:39:13.368Z,99318.85
2023-04-05T01:41:41.419Z,99307.70
2023-04-05T01:44:11.053Z,99302.83
2023-04-05T01:46:39.461Z,99294.16
2023-04-05T01:49:07.938Z,99292.43
2023-04-05T01:51:36.695Z,99285.27
2023-04-05T01:54:05.772Z,99284.75
2023-04-05T01:56:33.807Z,99280.68
2023-04-05T01:59:02.078Z,99275.07
2023-04-05T02:01:30.935Z,99274.47
2023-04-05T02:03:59.841Z,99270.88
2023-04-05T02:06:32.450Z,99264.90
2023-04-05T02:09:05.121Z,99258.08
2023-04-05T02:11:33.290Z,99257.92
2023-04-05T02:14:11.900Z,99258.09
2023-04-05T02:16:43.403Z,99260.08
2023-04-05T02:19:13.698Z,99260.89
2023-04-05T02:21:48.063Z,99260.38
2023-04-05T02:24:16.454Z,99259.34
2023-04-05T02:26:46.659Z,99258.34
2023-04-05T02:29:17.779Z,99256.63
2023-04-05T02:31:46.522Z,99260.77
2023-04-05T02:34:15.098Z,99268.80
2023-04-05T02:36:44.208Z,99269.49
2023-04-05T02:39:13.503Z,99269.46
2023-04-05T02:41:42.754Z,99265.17
2023-04-05T02:44:11.688Z,99263.98
2023-04-05T02:46:39.766Z,99266.66
2023-04-05T02:49:08.147Z,99268.34
2023-04-05T02:51:37.006Z,99263.06
2023-04-05T02:54:08.550Z,99260.01
2023-04-05T02:56:37.411Z,99260.02
2023-04-05T02:59:13.759Z,99263.20
2023-04-05T03:01:44.675Z,99263.73
2023-04-05T03:04:20.309Z,99269.68
2023-04-05T03:06:51.124Z,99267.66
2023-04-05T03:09:22.644Z,99267.82
2023-04-05T03:11:54.075Z,99272.58
2023-04-05T03:14:26.357Z,99274.42
2023-04-05T03:16:54.837Z,99273.71
2023-04-05T03:19:30.556Z,99268.41
2023-04-05T03:22:09.172Z,99267.39
2023-04-05T03:24:42.773Z,99264.69
2023-04-05T03:27:14.082Z,99265.73
2023-04-05T03:30:04.907Z,99270.89
2023-04-05T03:32:41.442Z,99272.26
2023-04-05T03:35:19.440Z,99272.14
2023-04-05T03:37:50.877Z,99269.61
2023-04-05T03:40:19.455Z,99266.39
2023-04-05T03:42:49.333Z,99270.48
2023-04-05T03:45:23.952Z,99265.90
2023-04-05T03:47:58.134Z,99265.45
2023-04-05T03:50:29.323Z,99265.48
2023-04-05T03:53:03.534Z,99266.69
2023-04-05T03:55:35.694Z,99260.92
2023-04-05T03:58:05.362Z,99260.94
2023-04-05T04:00:37.867Z,99257.91
2023-04-05T04:03:14.306Z,99256.58
2023-04-05T04:05:46.312Z,99256.89
2023-04-05T04:08:16.786Z,99254.71
2023-04-05T04:10:47.947Z,99258.30
2023-04-05T04:13:25.022Z,99255.56
2023-04-05T04:16:18.511Z,99252.98
2023-04-05T04:19:07.374Z,99249.94
2023-04-05T04:21:59.308Z,99250.59
2023-04-05T04:24:56.134Z,99248.71
2023-04-05T04:28:04.544Z,99248.59
2023-04-05T04:30:51.917Z,99242.98
2023-04-05T04:33:40.402Z,99244.55
2023-04-05T04:36:36.378Z,99243.05
2023-04-05T04:39:27.677Z,99242.07
2023-04-05T04:42:20.042Z,99241.23
2023-04-05T04:45:07.535Z,99245.52
2023-04-05T04:47:50.117Z,99249.09
2023-04-05T04:50:39.355Z,99249.63
2023-04-05T04:53:08.111Z,99248.72
2023-04-05T04:55:45.096Z,99247.02
2023-04-05T04:58:13.660Z,99245.98
2023-04-05T05:00:44.782Z,99249.55
2023-04-05T05:03:14.513Z,99250.75
2023-04-05T05:05:45.484Z,99253.98
2023-04-05T05:08:24.263Z,99256.73
2023-04-05T05:10:53.675Z,99256.10
2023-04-05T05:13:24.861Z,99250.34
2023-04-05T05:15:53.077Z,99245.11
2023-04-05T05:18:21.747Z,99238.65
2023-04-05T05:20:55.253Z,99235.39
2023-04-05T05:23:24.996Z,99228.90
2023-04-05T05:25:57.742Z,99225.46
2023-04-05T05:28:27.699Z,99221.31
2023-04-05T05:30:56.620Z,99223.33
2023-04-05T05:33:26.108Z,99223.13
2023-04-05T05:35:54.415Z,99219.75
2023-04-05T05:38:23.705Z,99220.96
2023-04-05T05:40:57.099Z,99219.23
2023-04-05T05:43:25.402Z,99221.67
2023-04-05T05:45:53.939Z,99224.02
2023-04-05T05:48:22.830Z,99220.63
2023-04-05T05:50:51.219Z,99223.73
2023-04-05T05:53:19.533Z,99218.67
2023-04-05T05:55:47.756Z,99220.90
2023-04-05T05:58:18.546Z,99217.13
2023-04-05T06:00:49.202Z,99216.28
2023-04-05T06:03:21.866Z,99222.08
2023-04-05T06:05:56.097Z,99222.76
2023-04-05T06:08:25.779Z,99223.95
2023-04-05T06:10:55.427Z,99223.59
2023-04-05T06:13:23.961Z,99224.40
2023-04-05T06:15:53.168Z,99226.59
2023-04-05T06:18:22.784Z,99230.83
2023-04-05T06:20:51.144Z,99232.86
2023-04-05T06:23:20.675Z,99233.37
2023-04-05T06:25:49.436Z,99236.27
2023-04-05T06:31:03.180Z,99229.48
2023-04-05T06:33:32.311Z,99225.64
2023-04-05T06:36:00.848Z,99232.82
2023-04-05T06:38:29.409Z,99232.61
2023-04-05T06:40:57.608Z,99229.35
2023-04-05T06:43:26.317Z,99233.25
2023-04-05T06:45:57.761Z,99234.27
2023-04-05T06:48:28.477Z,99234.23
2023-04-05T06:51:01.166Z,99232.52
2023-04-05T06:53:29.739Z,99236.59
2023-04-05T06:55:58.973Z,99230.16
2023-04-05T06:58:27.777Z,99230.19
2023-04-05T07:00:57.026Z,99227.81
2023-04-05T07:03:31.193Z,99218.64
2023-04-05T07:06:00.267Z,99219.86
2023-04-05T07:08:32.583Z,99208.94
2023-04-05T07:11:02.944Z,99206.73
2023-04-05T07:13:32.503Z,99203.73
2023-04-05T07:16:03.585Z,99202.27
2023-04-05T07:18:32.958Z,99201.90
2023-04-05T07:21:02.179Z,99208.71
2023-04-05T07:23:34.826Z,99209.46
2023-04-05T07:26:04.955Z,99206.34
2023-04-05T07:28:33.909Z,99207.43
2023-04-05T07:31:04.548Z,99203.13
2023-04-05T07:33:34.141Z,99198.27
2023-04-05T07:36:06.333Z,99202.10
2023-04-05T07:38:35.133Z,99197.57
2023-04-05T07:41:06.683Z,99194.18
2023-04-05T07:43:43.134Z,99195.52
2023-04-05T07:46:14.863Z,99189.45
2023-04-05T07:48:49.711Z,99188.48
2023-04-05T07:51:18.604Z,99185.00
2023-04-05T07:53:47.092Z,99189.52
2023-04-05T07:56:16.027Z,99185.35
2023-04-05T07:58:51.362Z,99189.61
2023-04-05T08:01:19.753Z,99190.77
2023-04-05T08:03:48.835Z,99194.02
2023-04-05T08:06:24.203Z,99193.35
2023-04-05T08:08:56.996Z,99197.48
2023-04-05T08:11:29.902Z,99203.21
2023-04-05T08:14:04.873Z,99210.62
2023-04-05T08:16:34.157Z,99208.67
2023-04-05T08:19:02.733Z,99213.48
2023-04-05T08:21:31.029Z,99216.59
2023-04-05T08:24:02.064Z,99219.31
2023-04-05T08:26:31.705Z,99219.30
2023-04-05T08:29:05.589Z,99225.81
2023-04-05T08:31:35.217Z,99222.99
2023-04-05T08:34:05.504Z,99210.00
2023-04-05T08:36:34.899Z,99207.25
2023-04-05T08:39:03.313Z,99215.72
2023-04-05T08:41:37.284Z,99217.16
2023-04-05T08:44:05.914Z,99217.00
2023-04-05T08:46:34.974Z,99216.83
2023-04-05T08:49:09.082Z,99208.84
2023-04-05T08:51:40.604Z,99207.86
2023-04-05T08:54:10.226Z,99208.58
2023-04-05T08:56:38.466Z,99207.59
2023-04-05T08:59:12.403Z,99209.66
2023-04-05T09:01:44.762Z,99214.85
2023-04-05T09:04:24.490Z,99214.73
2023-04-05T09:06:56.245Z,99216.52
2023-04-05T09:09:28.861Z,99212.70
2023-04-05T09:11:57.818Z,99207.56
2023-04-05T09:14:26.140Z,99200.40
2023-04-05T09:16:54.365Z,99198.95
2023-04-05T09:19:23.793Z,99200.71
2023-04-05T09:22:01.864Z,99200.20
2023-04-05T09:24:38.060Z,99198.15
2023-04-05T09:27:07.978Z,99195.30
2023-04-05T09:29:47.475Z,99190.55
2023-04-05T09:32:17.315Z,99187.13
2023-04-05T09:34:48.185Z,99187.48
2023-04-05T09:37:25.396Z,99182.55
2023-04-05T09:40:03.614Z,99186.04
2023-04-05T09:42:44.592Z,99191.32
2023-04-05T09:45:14.173Z,99192.00
2023-04-05T09:47:56.787Z,99189.63
2023-04-05T09:50:25.098Z,99187.59
2023-04-05T09:53:09.447Z,99185.56
2023-04-05T09:55:39.982Z,99188.46
2023-04-05T09:58:13.890Z,99188.15
2023-04-05T10:00:57.911Z,99184.23
2023-04-05T10:03:32.540Z,99186.66
2023-04-05T10:06:01.516Z,99179.41
2023-04-05T10:08:33.079Z,99179.34
2023-04-05T10:11:01.848Z,99175.72
2023-04-05T10:13:30.615Z,99178.23
2023-04-05T10:16:01.413Z,99180.37
2023-04-05T10:18:32.691Z,99181.83
2023-04-05T10:21:02.119Z,99177.48
2023-04-05T10:23:33.839Z,99177.41
2023-04-05T10:26:09.875Z,99171.06
2023-04-05T10:28:40.158Z,99171.01
2023-04-05T10:31:36.934Z,99174.52
2023-04-05T10:34:07.527Z,99175.27
2023-04-05T10:36:54.239Z,99178.58
2023-04-05T10:39:29.698Z,99183.27
2023-04-05T10:42:21.379Z,99183.36
2023-04-05T10:44:55.587Z,99182.08
2023-04-05T10:47:24.361Z,99182.86
2023-04-05T10:49:55.776Z,99185.34
2023-04-05T10:52:24.432Z,99185.58
2023-04-05T10:54:57.448Z,99184.79
2023-04-05T10:57:32.347Z,99182.81
2023-04-05T11:00:03.663Z,99181.88
2023-04-05T11:02:34.903Z,99182.83
2023-04-05T11:05:05.153Z,99187.65
2023-04-05T11:07:46.215Z,99183.61
2023-04-05T11:10:20.469Z,99182.83
2023-04-05T11:12:59.150Z,99181.17
2023-04-05T11:15:30.712Z,99176.12
2023-04-05T11:18:08.497Z,99172.42
2023-04-05T11:21:06.788Z,99173.98
2023-04-05T11:24:02.027Z,99175.45
2023-04-05T11:26:40.076Z,99169.57
2023-04-05T11:29:13.887Z,99177.10
2023-04-05T11:32:02.403Z,99178.89
2023-04-05T11:34:33.276Z,99180.98
2023-04-05T11:37:01.557Z,99180.19
2023-04-05T11:39:30.423Z,99180.95
2023-04-05T11:42:02.949Z,99178.06
2023-04-05T11:44:44.274Z,99177.05
2023-04-05T11:47:14.235Z,99175.69
2023-04-05T11:49:47.568Z,99172.06
2023-04-05T11:52:20.870Z,99170.88
2023-04-05T11:54:52.492Z,99168.67
2023-04-05T11:57:22.953Z,99163.94
2023-04-05T11:59:52.286Z,99165.99
2023-04-05T12:02:21.153Z,99161.36
2023-04-05T12:04:57.427Z,99160.32
2023-04-05T12:07:29.218Z,99162.37
2023-04-05T12:09:57.550Z,99148.55
2023-04-05T12:12:29.080Z,99145.67
2023-04-05T12:15:02.130Z,99141.92
2023-04-05T12:18:03.162Z,99142.89
2023-04-05T12:20:42.395Z,99137.52
2023-04-05T12:23:12.211Z,99132.38
2023-04-05T12:25:54.861Z,99126.06
2023-04-05T12:29:02.772Z,99121.84
2023-04-05T12:31:43.853Z,99120.85
2023-04-05T12:34:26.370Z,99117.02
2023-04-05T12:36:57.863Z,99120.86
2023-04-05T12:39:36.758Z,99120.41
2023-04-05T12:42:46.916Z,99119.31
2023-04-05T12:45:17.102Z,99114.44
2023-04-05T12:47:53.182Z,99113.59
2023-04-05T12:50:37.012Z,99111.22
2023-04-05T12:53:24.627Z,99105.42
2023-04-05T12:56:01.158Z,99103.91
2023-04-05T12:58:37.203Z,99101.35
2023-04-05T13:01:09.411Z,99100.88
2023-04-05T13:03:42.344Z,99103.22
2023-04-05T13:06:11.404Z,99112.77
2023-04-05T13:08:41.097Z,99111.48
2023-04-05T13:11:11.379Z,99111.20
2023-04-05T13:13:41.213Z,99108.30
2023-04-05T13:16:11.284Z,99107.98
2023-04-05T13:18:56.901Z,99114.29
2023-04-05T13:21:43.005Z,99099.25
2023-04-05T13:24:12.891Z,99100.80
2023-04-05T13:26:44.404Z,99101.15
2023-04-05T13:29:12.972Z,99099.09
2023-04-05T13:31:41.299Z,99093.41
2023-04-05T13:34:11.316Z,99095.59
2023-04-05T13:36:43.897Z,99095.52
2023-04-05T13:39:13.391Z,99088.85
2023-04-05T13:41:42.495Z,99087.11
2023-04-05T13:44:13.869Z,99084.91
2023-04-05T13:47:27.669Z,99077.95
2023-04-05T13:50:39.022Z,99079.52
2023-04-05T13:53:10.886Z,99084.98
2023-04-05T13:55:39.783Z,99085.79
2023-04-05T13:58:08.607Z,99087.62
2023-04-05T14:00:38.442Z,99080.58
2023-04-05T14:03:07.833Z,99078.84
2023-04-05T14:05:37.020Z,99076.59
2023-04-05T14:08:05.788Z,99072.80
2023-04-05T14:10:40.849Z,99069.46
2023-04-05T14:13:09.304Z,99068.22
2023-04-05T14:15:37.577Z,99067.52
2023-04-05T14:18:09.909Z,99066.98
2023-04-05T14:20:39.624Z,99067.98
2023-04-05T14:23:07.991Z,99070.34
2023-04-05T14:25:55.009Z,99072.35
2023-04-05T14:28:58.977Z,99068.07
2023-04-05T14:31:37.224Z,99064.83
2023-04-05T14:34:16.902Z,99065.49
2023-04-05T14:36:45.915Z,99077.57
2023-04-05T14:39:17.329Z,99078.09
2023-04-05T14:41:54.445Z,99079.80
2023-04-05T14:44:32.969Z,99081.98
2023-04-05T14:47:11.301Z,99081.98
2023-04-05T14:49:49.358Z,99093.40
2023-04-05T14:52:21.437Z,99098.00
2023-04-05T14:54:56.823Z,99098.55
2023-04-05T14:57:25.769Z,99101.32
2023-04-05T15:00:19.694Z,99103.02
2023-04-05T15:03:02.092Z,99104.41
2023-04-05T15:06:28.471Z,99092.98
2023-04-05T15:08:39.426Z,99092.13
2023-04-05T15:11:13.090Z,99090.75
2023-04-05T15:13:46.148Z,99085.64
2023-04-05T15:16:25.474Z,99081.05
2023-04-05T15:19:06.653Z,99079.54
2023-04-05T15:21:39.480Z,99081.75
2023-04-05T15:24:12.187Z,99083.23
2023-04-05T15:26:56.244Z,99081.37
2023-04-05T15:29:34.339Z,99084.62
2023-04-05T15:32:08.340Z,99102.73
2023-04-05T15:34:36.858Z,99109.88
2023-04-05T15:37:08.688Z,99109.88
2023-04-05T15:39:40.299Z,99107.82
2023-04-05T15:42:08.881Z,99110.32
2023-04-05T15:44:39.201Z,99104.85
2023-04-05T15:47:07.647Z,99100.58
2023-04-05T15:49:37.777Z,99100.02
2023-04-05T15:53:13.029Z,99100.88
2023-04-05T15:55:52.580Z,99089.08
2023-04-05T15:58:40.743Z,99085.63
2023-04-05T16:01:09.693Z,99083.21
2023-04-05T16:03:46.217Z,99081.65
2023-04-05T16:06:16.149Z,99077.20
2023-04-05T16:08:51.033Z,99081.98
2023-04-05T16:11:22.405Z,99079.06
2023-04-05T16:13:57.499Z,99079.54
2023-04-05T16:16:38.501Z,99074.55
2023-04-05T16:19:10.851Z,99078.46
2023-04-05T16:21:39.727Z,99082.73
2023-04-05T16:24:09.580Z,99085.97
2023-04-05T16:26:44.307Z,99088.52
2023-04-05T16:29:33.769Z,99085.48
2023-04-05T16:32:11.467Z,99086.14
2023-04-05T16:34:40.559Z,99083.05
2023-04-05T16:37:09.271Z,99081.70
2023-04-05T16:39:38.017Z,99079.83
2023-04-05T16:42:09.972Z,99081.20
2023-04-05T16:44:46.095Z,99083.41
2023-04-05T16:47:21.399Z,99078.78
2023-04-05T16:49:51.252Z,99078.95
2023-04-05T16:52:24.491Z,99083.22
2023-04-05T16:54:53.393Z,99086.64
2023-04-05T16:57:24.645Z,99088.36
2023-04-05T16:59:52.992Z,99086.02
2023-04-05T17:02:23.266Z,99085.35
2023-04-05T17:04:54.921Z,99090.14
2023-04-05T17:07:23.657Z,99089.96
2023-04-05T17:10:34.039Z,99095.06
2023-04-05T17:12:58.298Z,99092.67
2023-04-05T17:16:23.490Z,99103.60
2023-04-05T17:18:52.598Z,99090.64
2023-04-05T17:21:23.413Z,99108.20
2023-04-05T17:23:55.899Z,99103.46
2023-04-05T17:26:34.444Z,99107.58
2023-04-05T17:32:33.410Z,99092.42
2023-04-05T17:35:04.317Z,99104.20
2023-04-05T17:38:07.184Z,99111.20
2023-04-05T17:40:38.600Z,99102.53
2023-04-05T17:43:18.271Z,99106.99
2023-04-05T17:46:30.503Z,99104.29
2023-04-05T17:49:08.472Z,99110.39
2023-04-05T17:52:01.179Z,99119.29
2023-04-05T17:58:12.546Z,99114.16
2023-04-05T18:01:55.308Z,99109.38
2023-04-05T18:05:23.169Z,99103.05
2023-04-05T18:12:20.491Z,99096.27
2023-04-05T18:15:08.754Z,99095.58
2023-04-05T18:17:56.889Z,99097.63
2023-04-05T18:20:25.355Z,99095.07
2023-04-05T18:23:04.283Z,99094.08
2023-04-05T18:25:36.346Z,99088.13
2023-04-05T18:28:19.390Z,99087.11
2023-04-05T18:30:51.332Z,99085.91
2023-04-05T18:33:22.609Z,99084.04
2023-04-05T18:35:51.013Z,99080.45
2023-04-05T18:38:20.506Z,99076.20
2023-04-05T18:40:48.742Z,99072.31
2023-04-05T18:43:17.875Z,99074.91
2023-04-05T18:45:48.554Z,99071.86
2023-04-05T18:48:21.047Z,99071.38
2023-04-05T18:50:55.208Z,99069.20
2023-04-05T18:53:23.753Z,99061.86
2023-04-05T18:55:54.681Z,99067.02
2023-04-05T18:58:22.799Z,99060.22
2023-04-05T19:01:04.201Z,99060.44
2023-04-05T19:03:33.834Z,99059.81
2023-04-05T19:06:17.322Z,99054.26
2023-04-05T19:08:53.246Z,99058.25
2023-04-05T19:11:22.175Z,99058.45
2023-04-05T19:13:52.562Z,99053.36
2023-04-05T19:16:21.281Z,99050.00
2023-04-05T19:19:02.399Z,99046.31
2023-04-05T19:21:35.617Z,99043.45
2023-04-05T19:24:04.682Z,99043.29
2023-04-05T19:26:36.276Z,99041.41
2023-04-05T19:29:04.482Z,99039.04
2023-04-05T19:31:36.688Z,99035.79
2023-04-05T19:34:08.971Z,99033.21
2023-04-05T19:36:37.529Z,99033.70
2023-04-05T19:39:06.630Z,99030.98
2023-04-05T19:41:36.236Z,99018.50
2023-04-05T19:44:08.375Z,99021.94
2023-04-05T19:46:39.419Z,99018.73
2023-04-05T19:49:10.186Z,99013.13
2023-04-05T19:51:38.592Z,99009.23
2023-04-05T19:54:12.550Z,99006.18
2023-04-05T19:56:42.158Z,99007.58
2023-04-05T19:59:13.620Z,99004.17
2023-04-05T20:01:42.731Z,98997.01
2023-04-05T20:04:15.597Z,98996.50
2023-04-05T20:06:53.162Z,98995.50
2023-04-05T20:09:22.605Z,98989.88
2023-04-05T20:12:03.877Z,98990.92
2023-04-05T20:14:41.959Z,98985.84
2023-04-05T20:17:12.540Z,98977.66
2023-04-05T20:19:41.694Z,98978.02
2023-04-05T20:22:10.086Z,98979.59
2023-04-05T20:24:39.919Z,98975.67
2023-04-05T20:27:15.129Z,98975.88
2023-04-05T20:29:46.026Z,98975.91
2023-04-05T20:32:14.352Z,98967.06
2023-04-05T20:34:44.221Z,98966.27
2023-04-05T20:37:13.756Z,98958.77
2023-04-05T20:39:43.569Z,98960.34
2023-04-05T20:42:12.132Z,98953.17
2023-04-05T20:44:41.517Z,98951.66
2023-04-05T20:47:10.165Z,98942.94
2023-04-05T20:49:38.460Z,98939.88
2023-04-05T20:52:08.872Z,98940.24
2023-04-05T20:54:37.389Z,98940.27
2023-04-05T20:57:07.941Z,98939.77
2023-04-05T20:59:36.644Z,98937.05
2023-04-05T21:02:05.138Z,98936.91
2023-04-05T21:04:38.389Z,98928.52
2023-04-05T21:07:07.820Z,98922.58
2023-04-05T21:09:51.634Z,98917.11
2023-04-05T21:12:26.386Z,98922.77
2023-04-05T21:15:01.529Z,98917.84
2023-04-05T21:17:35.037Z,98919.91
2023-04-05T21:20:06.438Z,98919.27
2023-04-05T21:22:34.996Z,98923.70
2023-04-05T21:25:08.404Z,98926.64
2023-04-05T21:27:36.912Z,98928.55
2023-04-05T21:30:09.619Z,98930.62
2023-04-05T21:32:39.161Z,98931.84
2023-04-05T21:35:08.901Z,98928.09
2023-04-05T21:37:37.361Z,98918.51
2023-04-05T21:40:06.520Z,98915.44
2023-04-05T21:42:37.915Z,98919.55
2023-04-05T21:45:07.515Z,98911.87
2023-04-05T21:47:36.656Z,98910.66
2023-04-05T21:50:08.997Z,98914.61
2023-04-05T21:52:38.495Z,98915.45
2023-04-05T21:55:09.588Z,98911.35
2023-04-05T21:57:38.837Z,98915.30
2023-04-05T22:00:11.082Z,98920.61
2023-04-05T22:02:46.817Z,98924.86
2023-04-05T22:05:22.595Z,98924.34
2023-04-05T22:08:03.857Z,98912.88
2023-04-05T22:10:32.472Z,98918.31
2023-04-05T22:13:02.149Z,98910.96
2023-04-05T22:15:33.418Z,98904.29
2023-04-05T22:18:05.719Z,98906.16
2023-04-05T22:20:35.927Z,98904.28
2023-04-05T22:23:04.080Z,98898.46
2023-04-05T22:25:33.433Z,98896.59
2023-04-05T22:28:04.820Z,98892.80
2023-04-05T22:30:43.828Z,98887.67
2023-04-05T22:33:13.273Z,98886.80
2023-04-05T22:35:41.880Z,98882.71
2023-04-05T22:38:13.479Z,98888.36
2023-04-05T22:40:42.216Z,98879.29
2023-04-05T22:43:10.612Z,98887.67
2023-04-05T22:45:39.507Z,98888.20
2023-04-05T22:48:08.059Z,98889.06
2023-04-05T22:50:36.516Z,98890.43
2023-04-05T22:53:05.600Z,98886.00
2023-04-05T22:55:41.222Z,98878.83
2023-04-05T22:58:11.491Z,98880.89
2023-04-05T23:00:39.755Z,98874.55
2023-04-05T23:03:09.976Z,98869.59
2023-04-05T23:05:38.639Z,98875.06
2023-04-05T23:08:07.201Z,98869.57
2023-04-05T23:10:36.117Z,98870.59
2023-04-05T23:13:05.771Z,98875.38
2023-04-05T23:15:33.809Z,98873.52
2023-04-05T23:18:02.547Z,98872.66
2023-04-05T23:20:31.345Z,98874.20
2023-04-05T23:23:00.102Z,98876.09
2023-04-05T23:25:31.035Z,98871.98
2023-04-05T23:28:00.478Z,98869.77
2023-04-05T23:30:29.025Z,98865.49
2023-04-05T23:33:05.095Z,98870.13
2023-04-05T23:35:33.392Z,98870.64
2023-04-05T23:38:01.891Z,98868.43
2023-04-05T23:40:30.244Z,98856.46
2023-04-05T23:42:59.481Z,98859.38
2023-04-05T23:45:27.983Z,98861.77
2023-04-05T23:48:01.514Z,98859.21
2023-04-05T23:50:33.701Z,98858.71
2023-04-05T23:53:03.096Z,98854.09
2023-04-05T23:55:40.327Z,98856.16
2023-04-05T23:58:08.750Z,98853.61
